Richardson's Hourly Summary for Sunday, March 19, 2017
Hour Temp
(f)
RH
(%)
Solar Rad.
(MJ/m2)
Rainfall
(in)
Wind
(mph)
3/19/2017 12:00 AM 67 75 0 0 0.64
3/19/2017 1:00 AM 65 82 0 0 0.36
3/19/2017 2:00 AM 64 85 0 0 0.46
3/19/2017 3:00 AM 64 87 0 0 0.7
3/19/2017 4:00 AM 63 89 0 0 2.06
3/19/2017 5:00 AM 62 89 0 0 1.2
3/19/2017 6:00 AM 62 89 0 0 2.23
3/19/2017 7:00 AM 62 89 0 0 1.62
3/19/2017 8:00 AM 62 91 0.04 0 2.72
3/19/2017 9:00 AM 65 85 0.54 0 4.2
3/19/2017 10:00 AM 68 76 1.3 0 4.77
3/19/2017 11:00 AM 71 70 1.7 0 5.6
3/19/2017 12:00 PM 73 61 2.53 0 7.14
3/19/2017 1:00 PM 75 60 2.76 0 7.81
3/19/2017 2:00 PM 76 55 2.99 0 9.28
3/19/2017 3:00 PM 79 49 2.9 0 9.09
3/19/2017 4:00 PM 81 47 2.34 0 9.25
3/19/2017 5:00 PM 81 46 1.91 0 9.89
3/19/2017 6:00 PM 81 46 1.23 0 9.28
3/19/2017 7:00 PM 79 50 0.5 0 9.36
3/19/2017 8:00 PM 77 54 0.04 0 8.47
3/19/2017 9:00 PM 75 58 0 0 8.29
3/19/2017 10:00 PM 74 58 0 0 8.11
3/19/2017 11:00 PM 73 58 0 0 7.18
Data Summary 70 68 20.78 0.00 5.40